createdAt,value
2022-08-26T00:03:59.088Z,94093.00
2022-08-26T00:08:01.739Z,94090.00
2022-08-26T00:12:05.076Z,94090.00
2022-08-26T00:16:08.363Z,94080.00
2022-08-26T00:20:16.978Z,94080.00
2022-08-26T00:24:21.075Z,94076.00
2022-08-26T00:28:23.196Z,94081.00
2022-08-26T00:32:26.316Z,94080.00
2022-08-26T00:36:29.697Z,94078.00
2022-08-26T00:40:45.603Z,94084.00
2022-08-26T00:44:47.752Z,94092.00
2022-08-26T00:48:58.408Z,94084.00
2022-08-26T00:53:03.635Z,94080.00
2022-08-26T00:57:16.037Z,94078.00
2022-08-26T01:01:19.388Z,94077.00
2022-08-26T01:05:25.631Z,94076.00
2022-08-26T01:09:28.424Z,94074.00
2022-08-26T01:13:32.581Z,94068.00
2022-08-26T01:17:38.545Z,94073.00
2022-08-26T01:21:50.243Z,94071.00
2022-08-26T01:25:59.600Z,94069.00
2022-08-26T01:30:02.892Z,94071.00
2022-08-26T01:34:20.168Z,94075.00
2022-08-26T01:38:23.746Z,94070.00
2022-08-26T01:42:27.551Z,94068.00
2022-08-26T01:46:31.592Z,94063.00
2022-08-26T01:50:36.232Z,94061.00
2022-08-26T01:54:38.688Z,94059.00
2022-08-26T01:58:52.757Z,94059.00
2022-08-26T02:03:17.231Z,94057.00
2022-08-26T02:07:21.637Z,94054.00
2022-08-26T02:11:23.955Z,94052.00
2022-08-26T02:15:28.338Z,94043.00
2022-08-26T02:19:33.435Z,94044.00
2022-08-26T02:23:35.949Z,94044.00
2022-08-26T02:27:39.894Z,94043.00
2022-08-26T02:31:42.540Z,94053.00
2022-08-26T02:35:45.458Z,94046.00
2022-08-26T02:39:49.112Z,94043.00
2022-08-26T02:43:51.544Z,94033.00
2022-08-26T02:47:54.686Z,94044.00
2022-08-26T02:52:01.891Z,94038.00
2022-08-26T02:56:07.494Z,94038.00
2022-08-26T03:00:14.719Z,94030.00
2022-08-26T03:04:16.731Z,94037.00
2022-08-26T03:08:19.682Z,94031.00
2022-08-26T03:12:21.833Z,94026.00
2022-08-26T03:16:24.513Z,94017.00
2022-08-26T03:20:35.543Z,94016.00
2022-08-26T03:24:37.774Z,94021.00
2022-08-26T03:28:59.594Z,94015.00
2022-08-26T03:33:02.925Z,94017.00
2022-08-26T03:37:05.281Z,94020.00
2022-08-26T03:41:10.620Z,94011.00
2022-08-26T03:45:15.525Z,94010.00
2022-08-26T03:49:17.873Z,94009.00
2022-08-26T03:53:20.546Z,94016.00
2022-08-26T03:57:23.401Z,94019.00
2022-08-26T04:01:25.648Z,94012.00
2022-08-26T04:05:27.840Z,94015.00
2022-08-26T04:09:31.081Z,94008.00
2022-08-26T04:13:37.736Z,94010.00
2022-08-26T04:17:40.733Z,94005.00
2022-08-26T04:21:43.935Z,93999.00
2022-08-26T04:25:46.136Z,93998.00
2022-08-26T04:29:51.427Z,93994.00
2022-08-26T04:33:57.152Z,94004.00
2022-08-26T04:37:59.530Z,94006.00
2022-08-26T04:42:02.100Z,93996.00
2022-08-26T04:46:05.772Z,93985.00
2022-08-26T04:50:08.707Z,93987.00
2022-08-26T04:54:14.258Z,93982.00
2022-08-26T04:58:21.110Z,93979.00
2022-08-26T05:02:23.553Z,93971.00
2022-08-26T05:06:28.198Z,93981.00
2022-08-26T05:10:34.684Z,93986.00
2022-08-26T05:14:37.012Z,93986.00
2022-08-26T05:18:40.855Z,93989.00
2022-08-26T05:22:45.737Z,93992.00
2022-08-26T05:26:48.280Z,93999.00
2022-08-26T05:30:51.391Z,94002.00
2022-08-26T05:34:57.568Z,94013.00
2022-08-26T05:39:02.504Z,94042.00
2022-08-26T05:43:10.583Z,94038.00
2022-08-26T05:47:12.809Z,94039.00
2022-08-26T05:51:15.407Z,94041.00
2022-08-26T05:55:19.124Z,94037.00
2022-08-26T05:59:24.487Z,94036.00
2022-08-26T06:03:27.292Z,94039.00
2022-08-26T06:07:48.025Z,94044.00
2022-08-26T06:11:51.662Z,94046.00
2022-08-26T06:15:55.776Z,94046.00
2022-08-26T06:19:58.672Z,94046.00
2022-08-26T06:24:26.991Z,94045.00
2022-08-26T06:28:29.896Z,94040.00
2022-08-26T06:32:32.204Z,94050.00
2022-08-26T06:36:35.182Z,94054.00
2022-08-26T06:40:48.551Z,94046.00
2022-08-26T06:44:50.622Z,94049.00
2022-08-26T06:48:54.796Z,94050.00
2022-08-26T06:52:57.627Z,94039.00
2022-08-26T06:57:01.350Z,94048.00
2022-08-26T07:01:11.380Z,94047.00
2022-08-26T07:05:15.390Z,94048.00
2022-08-26T07:09:18.180Z,94060.00
2022-08-26T07:13:29.907Z,94055.00
2022-08-26T07:17:33.327Z,94054.00
2022-08-26T07:21:37.266Z,94046.00
2022-08-26T07:25:41.714Z,94048.00
2022-08-26T07:29:44.994Z,94048.00
2022-08-26T07:33:48.396Z,94051.00
2022-08-26T07:37:55.064Z,94043.00
2022-08-26T07:42:07.716Z,94045.00
2022-08-26T07:46:15.877Z,94044.00
2022-08-26T07:50:19.441Z,94043.00
2022-08-26T07:54:26.860Z,94034.00
2022-08-26T07:58:29.673Z,94041.00
2022-08-26T08:02:32.243Z,94043.00
2022-08-26T08:06:37.596Z,94037.00
2022-08-26T08:10:40.194Z,94036.00
2022-08-26T08:14:45.388Z,94048.00
2022-08-26T08:18:48.002Z,94040.00
2022-08-26T08:22:52.053Z,94043.00
2022-08-26T08:26:56.091Z,94034.00
2022-08-26T08:30:58.544Z,94030.00
2022-08-26T08:35:02.540Z,94036.00
2022-08-26T08:39:14.071Z,94030.00
2022-08-26T08:43:37.729Z,94025.00
2022-08-26T08:47:48.642Z,94034.00
2022-08-26T08:51:59.671Z,94031.00
2022-08-26T08:56:11.099Z,94030.00
2022-08-26T09:00:19.075Z,94027.00
2022-08-26T09:04:36.579Z,94029.00
2022-08-26T09:08:41.146Z,94028.00
2022-08-26T09:12:43.961Z,94026.00
2022-08-26T09:16:56.833Z,94020.00
2022-08-26T09:21:06.537Z,94033.00
2022-08-26T09:25:11.565Z,94026.00
2022-08-26T09:33:32.046Z,94029.00
2022-08-26T09:37:40.496Z,94033.00
2022-08-26T09:41:43.702Z,94033.00
2022-08-26T09:45:50.184Z,94027.00
2022-08-26T09:50:28.805Z,94031.00
2022-08-26T09:54:32.474Z,94022.00
2022-08-26T09:58:39.229Z,94018.00
2022-08-26T10:02:47.738Z,94010.00
2022-08-26T10:07:09.940Z,94010.00
2022-08-26T10:11:24.595Z,94008.00
2022-08-26T10:15:28.304Z,94008.00
2022-08-26T10:19:53.573Z,93999.00
2022-08-26T10:24:02.308Z,94005.00
2022-08-26T10:28:33.315Z,94007.00
2022-08-26T10:33:03.711Z,94009.00
2022-08-26T10:37:18.216Z,94010.00
2022-08-26T10:41:24.225Z,93995.00
2022-08-26T10:45:29.803Z,93991.00
2022-08-26T10:49:31.824Z,93987.00
2022-08-26T10:53:42.635Z,93992.00
2022-08-26T10:57:53.095Z,93984.00
2022-08-26T11:02:28.505Z,93981.00
2022-08-26T11:06:31.504Z,93978.00
2022-08-26T11:10:42.914Z,93987.00
2022-08-26T11:14:58.507Z,93968.00
2022-08-26T11:19:01.378Z,93963.00
2022-08-26T11:23:12.976Z,93964.00
2022-08-26T11:27:36.414Z,93960.00
2022-08-26T11:31:38.896Z,93950.00
2022-08-26T11:35:43.897Z,93952.00
2022-08-26T11:39:55.140Z,93955.00
2022-08-26T11:43:59.915Z,93939.00
2022-08-26T11:48:20.061Z,93942.00
2022-08-26T11:52:23.275Z,93934.00
2022-08-26T11:56:33.424Z,93941.00
2022-08-26T12:00:45.756Z,93934.00
2022-08-26T12:04:51.078Z,93925.00
2022-08-26T12:09:00.128Z,93925.00
2022-08-26T12:13:04.216Z,93921.00
2022-08-26T12:17:13.764Z,93926.00
2022-08-26T12:21:24.274Z,93931.00
2022-08-26T12:25:28.217Z,93913.00
2022-08-26T12:29:38.503Z,93915.00
2022-08-26T12:33:42.084Z,93920.00
2022-08-26T12:37:52.023Z,93911.00
2022-08-26T12:42:00.039Z,93924.00
2022-08-26T12:46:06.641Z,93908.00
2022-08-26T12:50:20.255Z,93911.00
2022-08-26T12:54:42.475Z,93896.00
2022-08-26T12:58:44.767Z,93895.00
2022-08-26T13:02:47.159Z,93882.00
2022-08-26T13:06:49.555Z,93883.00
2022-08-26T13:11:03.414Z,93867.00
2022-08-26T13:15:06.964Z,93867.00
2022-08-26T13:19:29.355Z,93862.00
2022-08-26T13:23:41.930Z,93862.00
2022-08-26T13:27:45.002Z,93859.00
2022-08-26T13:31:47.721Z,93856.00
2022-08-26T13:35:50.207Z,93853.00
2022-08-26T13:39:56.029Z,93864.00
2022-08-26T13:43:59.824Z,93858.00
2022-08-26T13:48:02.280Z,93858.00
2022-08-26T13:52:04.766Z,93864.00
2022-08-26T13:56:10.821Z,93852.00
2022-08-26T14:00:14.243Z,93858.00
2022-08-26T14:04:16.389Z,93857.00
2022-08-26T14:08:26.053Z,93858.00
2022-08-26T14:12:28.769Z,93851.00
2022-08-26T14:16:37.975Z,93846.00
2022-08-26T14:21:00.463Z,93842.00
2022-08-26T14:25:02.420Z,93848.00
2022-08-26T14:29:06.128Z,93842.00
2022-08-26T14:33:12.027Z,93840.00
2022-08-26T14:37:15.355Z,93831.00
2022-08-26T14:41:19.093Z,93834.00
2022-08-26T14:45:24.081Z,93829.00
2022-08-26T14:49:27.605Z,93827.00
2022-08-26T14:53:47.925Z,93830.00
2022-08-26T14:57:49.851Z,93832.00
2022-08-26T15:01:52.772Z,93830.00
2022-08-26T15:05:54.974Z,93829.00
2022-08-26T15:09:57.108Z,93818.00
2022-08-26T15:14:00.021Z,93828.00
2022-08-26T15:18:03.701Z,93822.00
2022-08-26T15:22:06.074Z,93830.00
2022-08-26T15:26:10.524Z,93827.00
2022-08-26T15:30:13.662Z,93832.00
2022-08-26T15:34:18.419Z,93830.00
2022-08-26T15:38:20.714Z,93826.00
2022-08-26T15:42:23.205Z,93820.00
2022-08-26T15:46:25.610Z,93816.00
2022-08-26T15:50:29.054Z,93807.00
2022-08-26T15:54:32.697Z,93807.00
2022-08-26T15:58:35.126Z,93814.00
2022-08-26T16:02:38.551Z,93818.00
2022-08-26T16:06:41.598Z,93814.00
2022-08-26T16:10:49.965Z,93817.00
2022-08-26T16:14:54.068Z,93816.00
2022-08-26T16:18:56.341Z,93811.00
2022-08-26T16:22:59.994Z,93812.00
2022-08-26T16:27:02.552Z,93812.00
2022-08-26T16:31:04.893Z,93819.00
2022-08-26T16:35:07.976Z,93817.00
2022-08-26T16:39:10.342Z,93816.00
2022-08-26T16:43:15.226Z,93829.00
2022-08-26T16:47:21.735Z,93823.00
2022-08-26T16:51:27.020Z,93824.00
2022-08-26T16:55:29.045Z,93822.00
2022-08-26T16:59:33.092Z,93810.00
2022-08-26T17:03:35.218Z,93806.00
2022-08-26T17:07:38.368Z,93806.00
2022-08-26T17:11:40.270Z,93799.00
2022-08-26T17:15:54.242Z,93804.00
2022-08-26T17:20:06.118Z,93803.00
2022-08-26T17:24:08.504Z,93803.00
2022-08-26T17:28:13.518Z,93798.00
2022-08-26T17:32:16.084Z,93801.00
2022-08-26T17:36:19.491Z,93797.00
2022-08-26T17:40:24.618Z,93795.00
2022-08-26T17:44:26.746Z,93797.00
2022-08-26T17:48:30.012Z,93809.00
2022-08-26T17:52:32.370Z,93812.00
2022-08-26T17:56:34.338Z,93810.00
2022-08-26T18:00:37.790Z,93806.00
2022-08-26T18:04:39.961Z,93801.00
2022-08-26T18:08:45.238Z,93806.00
2022-08-26T18:12:49.475Z,93811.00
2022-08-26T18:17:03.108Z,93821.00
2022-08-26T18:21:22.668Z,93829.00
2022-08-26T18:25:28.627Z,93831.00
2022-08-26T18:29:30.950Z,93831.00
2022-08-26T18:33:36.862Z,93835.00
2022-08-26T18:37:41.903Z,93833.00
2022-08-26T18:41:47.209Z,93832.00
2022-08-26T18:46:03.723Z,93842.00
2022-08-26T18:50:07.684Z,93839.00
2022-08-26T18:54:10.767Z,93849.00
2022-08-26T18:58:13.620Z,93847.00
2022-08-26T19:02:20.037Z,93846.00
2022-08-26T19:06:26.671Z,93851.00
2022-08-26T19:10:29.554Z,93845.00
2022-08-26T19:14:31.771Z,93858.00
2022-08-26T19:18:33.922Z,93852.00
2022-08-26T19:22:37.397Z,93852.00
2022-08-26T19:26:39.612Z,93866.00
2022-08-26T19:30:45.021Z,93871.00
2022-08-26T19:34:47.383Z,93867.00
2022-08-26T19:38:50.086Z,93870.00
2022-08-26T19:42:52.225Z,93874.00
2022-08-26T19:46:54.563Z,93880.00
2022-08-26T19:50:56.647Z,93891.00
2022-08-26T19:55:00.785Z,93882.00
2022-08-26T19:59:02.925Z,93880.00
2022-08-26T20:03:05.056Z,93884.00
2022-08-26T20:07:07.812Z,93878.00
2022-08-26T20:11:14.693Z,93883.00
2022-08-26T20:15:17.317Z,93876.00
2022-08-26T20:19:38.015Z,93884.00
2022-08-26T20:23:40.789Z,93880.00
2022-08-26T20:27:43.462Z,93882.00
2022-08-26T20:31:47.482Z,93883.00
2022-08-26T20:35:49.945Z,93896.00
2022-08-26T20:39:54.592Z,93928.00
2022-08-26T20:43:57.737Z,93926.00
2022-08-26T20:48:00.248Z,93911.00
2022-08-26T20:52:02.785Z,93889.00
2022-08-26T20:56:08.909Z,93888.00
2022-08-26T21:00:13.477Z,93888.00
2022-08-26T21:04:20.892Z,93886.00
2022-08-26T21:08:23.294Z,93875.00
2022-08-26T21:12:27.991Z,93872.00
2022-08-26T21:16:31.169Z,93896.00
2022-08-26T21:20:33.770Z,93935.00
2022-08-26T21:24:36.264Z,93954.00
2022-08-26T21:28:40.831Z,93949.00
2022-08-26T21:32:43.372Z,93940.00
2022-08-26T21:36:46.943Z,93938.00
2022-08-26T21:41:04.346Z,93942.00
2022-08-26T21:45:07.279Z,93938.00
2022-08-26T21:49:13.384Z,93921.00
2022-08-26T21:53:15.730Z,93910.00
2022-08-26T21:57:18.544Z,93902.00
2022-08-26T22:01:23.268Z,93900.00
2022-08-26T22:05:25.561Z,93902.00
2022-08-26T22:09:30.941Z,93883.00
2022-08-26T22:13:36.399Z,93877.00
2022-08-26T22:17:39.227Z,93868.00
2022-08-26T22:21:41.407Z,93864.00
2022-08-26T22:25:43.603Z,93874.00
2022-08-26T22:29:48.055Z,93874.00
2022-08-26T22:33:50.133Z,93877.00
2022-08-26T22:37:52.280Z,93871.00
2022-08-26T22:41:57.418Z,93871.00
2022-08-26T22:45:59.796Z,93863.00
2022-08-26T22:50:02.363Z,93842.00
2022-08-26T22:54:05.786Z,93852.00
2022-08-26T22:58:08.053Z,93848.00
2022-08-26T23:02:11.103Z,93863.00
2022-08-26T23:06:14.875Z,93875.00
2022-08-26T23:10:17.469Z,93878.00
2022-08-26T23:14:19.700Z,93858.00
2022-08-26T23:18:21.996Z,93840.00
2022-08-26T23:22:25.165Z,93832.00
2022-08-26T23:26:27.364Z,93821.00
2022-08-26T23:30:31.881Z,93830.00
2022-08-26T23:34:52.703Z,93843.00
2022-08-26T23:38:55.391Z,93833.00
2022-08-26T23:43:03.611Z,93843.00
2022-08-26T23:47:06.526Z,93852.00
2022-08-26T23:51:28.678Z,93844.00
2022-08-26T23:55:34.762Z,93851.00
2022-08-26T23:59:38.491Z,93849.00
